sensor_id;sensor_type;location;lat;lon;timestamp;temperature;humidity
39919;DHT22;25589;51.552;13.424;2023-09-07T00:00:20;19.90;99.90
39919;DHT22;25589;51.552;13.424;2023-09-07T00:02:46;19.90;99.90
39919;DHT22;25589;51.552;13.424;2023-09-07T00:05:11;19.80;99.90
39919;DHT22;25589;51.552;13.424;2023-09-07T00:07:38;19.80;99.90
39919;DHT22;25589;51.552;13.424;2023-09-07T00:10:05;19.70;99.90
39919;DHT22;25589;51.552;13.424;2023-09-07T00:12:30;19.70;99.90
39919;DHT22;25589;51.552;13.424;2023-09-07T00:14:57;19.70;99.90
39919;DHT22;25589;51.552;13.424;2023-09-07T00:17:23;19.60;99.90
39919;DHT22;25589;51.552;13.424;2023-09-07T00:19:49;19.60;99.90
39919;DHT22;25589;51.552;13.424;2023-09-07T00:22:16;19.60;99.90
39919;DHT22;25589;51.552;13.424;2023-09-07T00:24:42;19.50;99.90
39919;DHT22;25589;51.552;13.424;2023-09-07T00:27:08;19.30;99.90
39919;DHT22;25589;51.552;13.424;2023-09-07T00:29:40;19.30;99.90
39919;DHT22;25589;51.552;13.424;2023-09-07T00:32:05;19.20;99.90
39919;DHT22;25589;51.552;13.424;2023-09-07T00:34:31;19.20;99.90
39919;DHT22;25589;51.552;13.424;2023-09-07T00:36:57;19.10;99.90
39919;DHT22;25589;51.552;13.424;2023-09-07T00:39:23;19.10;99.90
39919;DHT22;25589;51.552;13.424;2023-09-07T00:41:48;19.10;99.90
39919;DHT22;25589;51.552;13.424;2023-09-07T00:44:14;19.10;99.90
39919;DHT22;25589;51.552;13.424;2023-09-07T00:46:40;19.10;99.90
39919;DHT22;25589;51.552;13.424;2023-09-07T00:49:05;19.10;99.90
39919;DHT22;25589;51.552;13.424;2023-09-07T00:51:31;19.10;99.90
39919;DHT22;25589;51.552;13.424;2023-09-07T00:53:58;19.10;99.90
39919;DHT22;25589;51.552;13.424;2023-09-07T00:56:26;19.10;99.90
39919;DHT22;25589;51.552;13.424;2023-09-07T00:58:53;19.10;99.90
39919;DHT22;25589;51.552;13.424;2023-09-07T01:01:22;19.00;99.90
39919;DHT22;25589;51.552;13.424;2023-09-07T01:03:48;19.00;99.90
39919;DHT22;25589;51.552;13.424;2023-09-07T01:06:25;19.00;99.90
39919;DHT22;25589;51.552;13.424;2023-09-07T01:08:55;19.00;99.90
39919;DHT22;25589;51.552;13.424;2023-09-07T01:11:24;18.90;99.90
39919;DHT22;25589;51.552;13.424;2023-09-07T01:13:51;18.90;99.90
39919;DHT22;25589;51.552;13.424;2023-09-07T01:16:21;18.80;99.90
39919;DHT22;25589;51.552;13.424;2023-09-07T01:18:47;18.80;99.90
39919;DHT22;25589;51.552;13.424;2023-09-07T01:21:13;18.80;99.90
39919;DHT22;25589;51.552;13.424;2023-09-07T01:23:41;18.80;99.90
39919;DHT22;25589;51.552;13.424;2023-09-07T01:26:09;18.70;99.90
39919;DHT22;25589;51.552;13.424;2023-09-07T01:28:35;18.70;99.90
39919;DHT22;25589;51.552;13.424;2023-09-07T01:31:02;18.70;99.90
39919;DHT22;25589;51.552;13.424;2023-09-07T01:33:28;18.70;99.90
39919;DHT22;25589;51.552;13.424;2023-09-07T01:35:54;18.70;99.90
39919;DHT22;25589;51.552;13.424;2023-09-07T01:38:20;18.70;99.90
39919;DHT22;25589;51.552;13.424;2023-09-07T01:40:45;18.70;99.90
39919;DHT22;25589;51.552;13.424;2023-09-07T01:43:11;18.60;99.90
39919;DHT22;25589;51.552;13.424;2023-09-07T01:45:37;18.60;99.90
39919;DHT22;25589;51.552;13.424;2023-09-07T01:48:03;18.60;99.90
39919;DHT22;25589;51.552;13.424;2023-09-07T01:50:31;18.60;99.90
39919;DHT22;25589;51.552;13.424;2023-09-07T01:52:57;18.50;99.90
39919;DHT22;25589;51.552;13.424;2023-09-07T01:55:24;18.50;99.90
39919;DHT22;25589;51.552;13.424;2023-09-07T01:57:49;18.40;99.90
39919;DHT22;25589;51.552;13.424;2023-09-07T02:00:15;18.40;99.90
39919;DHT22;25589;51.552;13.424;2023-09-07T02:02:41;18.40;99.90
39919;DHT22;25589;51.552;13.424;2023-09-07T02:05:06;18.40;99.90
39919;DHT22;25589;51.552;13.424;2023-09-07T02:07:33;18.40;99.90
39919;DHT22;25589;51.552;13.424;2023-09-07T02:09:58;18.40;99.90
39919;DHT22;25589;51.552;13.424;2023-09-07T02:12:24;18.30;99.90
39919;DHT22;25589;51.552;13.424;2023-09-07T02:14:50;18.30;99.90
39919;DHT22;25589;51.552;13.424;2023-09-07T02:17:15;18.30;99.90
39919;DHT22;25589;51.552;13.424;2023-09-07T02:19:44;18.30;99.90
39919;DHT22;25589;51.552;13.424;2023-09-07T02:22:10;18.30;99.90
39919;DHT22;25589;51.552;13.424;2023-09-07T02:24:36;18.60;99.90
39919;DHT22;25589;51.552;13.424;2023-09-07T02:27:01;18.30;99.90
39919;DHT22;25589;51.552;13.424;2023-09-07T02:29:27;18.30;99.90
39919;DHT22;25589;51.552;13.424;2023-09-07T02:31:53;18.20;99.90
39919;DHT22;25589;51.552;13.424;2023-09-07T02:34:19;18.30;99.90
39919;DHT22;25589;51.552;13.424;2023-09-07T02:36:45;18.20;99.90
39919;DHT22;25589;51.552;13.424;2023-09-07T02:39:11;18.20;99.90
39919;DHT22;25589;51.552;13.424;2023-09-07T02:41:37;18.20;99.90
39919;DHT22;25589;51.552;13.424;2023-09-07T02:44:03;18.10;99.90
39919;DHT22;25589;51.552;13.424;2023-09-07T02:46:29;18.10;99.90
39919;DHT22;25589;51.552;13.424;2023-09-07T02:48:56;18.10;99.90
39919;DHT22;25589;51.552;13.424;2023-09-07T02:51:24;18.00;99.90
39919;DHT22;25589;51.552;13.424;2023-09-07T02:53:50;17.90;99.90
39919;DHT22;25589;51.552;13.424;2023-09-07T02:56:16;18.00;99.90
39919;DHT22;25589;51.552;13.424;2023-09-07T02:58:42;18.00;99.90
39919;DHT22;25589;51.552;13.424;2023-09-07T03:01:07;17.90;99.90
39919;DHT22;25589;51.552;13.424;2023-09-07T03:03:36;17.90;99.90
39919;DHT22;25589;51.552;13.424;2023-09-07T03:06:09;17.90;99.90
39919;DHT22;25589;51.552;13.424;2023-09-07T03:08:35;17.80;99.90
39919;DHT22;25589;51.552;13.424;2023-09-07T03:13:31;17.80;99.90
39919;DHT22;25589;51.552;13.424;2023-09-07T03:15:57;17.80;99.90
39919;DHT22;25589;51.552;13.424;2023-09-07T03:18:23;17.70;99.90
39919;DHT22;25589;51.552;13.424;2023-09-07T03:20:50;17.80;99.90
39919;DHT22;25589;51.552;13.424;2023-09-07T03:23:16;17.70;99.90
39919;DHT22;25589;51.552;13.424;2023-09-07T03:25:41;17.70;99.90
39919;DHT22;25589;51.552;13.424;2023-09-07T03:28:07;17.70;99.90
39919;DHT22;25589;51.552;13.424;2023-09-07T03:30:35;17.70;99.90
39919;DHT22;25589;51.552;13.424;2023-09-07T03:33:01;17.60;99.90
39919;DHT22;25589;51.552;13.424;2023-09-07T03:35:29;17.60;99.90
39919;DHT22;25589;51.552;13.424;2023-09-07T03:37:55;17.60;99.90
39919;DHT22;25589;51.552;13.424;2023-09-07T03:40:20;17.50;99.90
39919;DHT22;25589;51.552;13.424;2023-09-07T03:42:46;17.50;99.90
39919;DHT22;25589;51.552;13.424;2023-09-07T03:45:12;17.50;99.90
39919;DHT22;25589;51.552;13.424;2023-09-07T03:47:38;17.50;99.90
39919;DHT22;25589;51.552;13.424;2023-09-07T03:50:04;17.40;99.90
39919;DHT22;25589;51.552;13.424;2023-09-07T03:52:31;17.40;99.90
39919;DHT22;25589;51.552;13.424;2023-09-07T03:55:00;17.40;99.90
39919;DHT22;25589;51.552;13.424;2023-09-07T03:57:27;17.40;99.90
39919;DHT22;25589;51.552;13.424;2023-09-07T03:59:53;17.50;99.90
39919;DHT22;25589;51.552;13.424;2023-09-07T04:02:21;17.40;99.90
39919;DHT22;25589;51.552;13.424;2023-09-07T04:04:52;17.30;99.90
39919;DHT22;25589;51.552;13.424;2023-09-07T04:07:18;17.30;99.90
39919;DHT22;25589;51.552;13.424;2023-09-07T04:09:44;17.20;99.90
39919;DHT22;25589;51.552;13.424;2023-09-07T04:12:10;17.10;99.90
39919;DHT22;25589;51.552;13.424;2023-09-07T04:14:35;17.20;99.90
39919;DHT22;25589;51.552;13.424;2023-09-07T04:17:01;17.10;99.90
39919;DHT22;25589;51.552;13.424;2023-09-07T04:19:27;17.10;99.90
39919;DHT22;25589;51.552;13.424;2023-09-07T04:21:52;17.10;99.90
39919;DHT22;25589;51.552;13.424;2023-09-07T04:24:18;17.10;99.90
39919;DHT22;25589;51.552;13.424;2023-09-07T04:26:44;17.10;99.90
39919;DHT22;25589;51.552;13.424;2023-09-07T04:29:10;16.90;99.90
39919;DHT22;25589;51.552;13.424;2023-09-07T04:31:37;17.10;99.90
39919;DHT22;25589;51.552;13.424;2023-09-07T04:34:03;17.10;99.90
39919;DHT22;25589;51.552;13.424;2023-09-07T04:36:29;17.00;99.90
39919;DHT22;25589;51.552;13.424;2023-09-07T04:38:54;17.10;99.90
39919;DHT22;25589;51.552;13.424;2023-09-07T04:41:20;17.10;99.90
39919;DHT22;25589;51.552;13.424;2023-09-07T04:43:46;17.00;99.90
39919;DHT22;25589;51.552;13.424;2023-09-07T04:46:12;17.00;99.90
39919;DHT22;25589;51.552;13.424;2023-09-07T04:48:40;17.00;99.90
39919;DHT22;25589;51.552;13.424;2023-09-07T04:51:09;17.00;99.90
39919;DHT22;25589;51.552;13.424;2023-09-07T04:53:37;17.00;99.90
39919;DHT22;25589;51.552;13.424;2023-09-07T04:56:04;16.90;99.90
39919;DHT22;25589;51.552;13.424;2023-09-07T04:58:31;16.90;99.90
39919;DHT22;25589;51.552;13.424;2023-09-07T05:01:09;16.80;99.90
39919;DHT22;25589;51.552;13.424;2023-09-07T05:03:36;16.80;99.90
39919;DHT22;25589;51.552;13.424;2023-09-07T05:06:03;16.90;99.90
39919;DHT22;25589;51.552;13.424;2023-09-07T05:08:29;16.90;99.90
39919;DHT22;25589;51.552;13.424;2023-09-07T05:10:56;17.00;99.90
39919;DHT22;25589;51.552;13.424;2023-09-07T05:13:23;16.90;99.90
39919;DHT22;25589;51.552;13.424;2023-09-07T05:15:50;16.90;99.90
39919;DHT22;25589;51.552;13.424;2023-09-07T05:18:17;16.90;99.90
39919;DHT22;25589;51.552;13.424;2023-09-07T05:20:43;17.00;99.90
39919;DHT22;25589;51.552;13.424;2023-09-07T05:23:18;17.00;99.90
39919;DHT22;25589;51.552;13.424;2023-09-07T05:25:46;17.00;99.90
39919;DHT22;25589;51.552;13.424;2023-09-07T05:28:15;16.90;99.90
39919;DHT22;25589;51.552;13.424;2023-09-07T05:30:42;17.00;99.90
39919;DHT22;25589;51.552;13.424;2023-09-07T05:33:11;17.00;99.90
39919;DHT22;25589;51.552;13.424;2023-09-07T05:35:38;17.00;99.90
39919;DHT22;25589;51.552;13.424;2023-09-07T05:38:05;17.20;99.90
39919;DHT22;25589;51.552;13.424;2023-09-07T05:40:41;17.10;99.90
39919;DHT22;25589;51.552;13.424;2023-09-07T05:43:08;17.20;99.90
39919;DHT22;25589;51.552;13.424;2023-09-07T05:45:39;17.20;99.90
39919;DHT22;25589;51.552;13.424;2023-09-07T05:48:06;17.20;99.90
39919;DHT22;25589;51.552;13.424;2023-09-07T05:50:34;17.50;99.90
39919;DHT22;25589;51.552;13.424;2023-09-07T05:53:00;17.40;99.90
39919;DHT22;25589;51.552;13.424;2023-09-07T05:55:26;17.40;99.90
39919;DHT22;25589;51.552;13.424;2023-09-07T05:57:55;17.50;99.90
39919;DHT22;25589;51.552;13.424;2023-09-07T06:00:21;17.50;99.90
39919;DHT22;25589;51.552;13.424;2023-09-07T06:02:48;17.50;99.90
39919;DHT22;25589;51.552;13.424;2023-09-07T06:05:14;17.50;99.90
39919;DHT22;25589;51.552;13.424;2023-09-07T06:07:40;17.60;99.90
39919;DHT22;25589;51.552;13.424;2023-09-07T06:10:07;17.70;99.90
39919;DHT22;25589;51.552;13.424;2023-09-07T06:12:34;17.80;99.90
39919;DHT22;25589;51.552;13.424;2023-09-07T06:15:01;17.80;99.90
39919;DHT22;25589;51.552;13.424;2023-09-07T06:17:28;17.90;99.90
39919;DHT22;25589;51.552;13.424;2023-09-07T06:19:54;17.90;99.90
39919;DHT22;25589;51.552;13.424;2023-09-07T06:22:20;18.00;99.90
39919;DHT22;25589;51.552;13.424;2023-09-07T06:24:46;18.10;99.90
39919;DHT22;25589;51.552;13.424;2023-09-07T06:27:11;18.10;99.90
39919;DHT22;25589;51.552;13.424;2023-09-07T06:29:37;18.10;99.90
39919;DHT22;25589;51.552;13.424;2023-09-07T06:32:03;18.20;99.90
39919;DHT22;25589;51.552;13.424;2023-09-07T06:34:29;18.30;99.90
39919;DHT22;25589;51.552;13.424;2023-09-07T06:36:54;18.40;99.90
39919;DHT22;25589;51.552;13.424;2023-09-07T06:39:20;18.40;99.90
39919;DHT22;25589;51.552;13.424;2023-09-07T06:41:47;18.50;99.90
39919;DHT22;25589;51.552;13.424;2023-09-07T06:44:13;18.60;99.90
39919;DHT22;25589;51.552;13.424;2023-09-07T06:46:40;18.70;99.90
39919;DHT22;25589;51.552;13.424;2023-09-07T06:49:05;18.70;99.90
39919;DHT22;25589;51.552;13.424;2023-09-07T06:51:31;18.70;99.90
39919;DHT22;25589;51.552;13.424;2023-09-07T06:53:57;18.80;99.90
39919;DHT22;25589;51.552;13.424;2023-09-07T06:56:24;18.90;99.90
39919;DHT22;25589;51.552;13.424;2023-09-07T06:58:51;18.90;99.90
39919;DHT22;25589;51.552;13.424;2023-09-07T07:01:17;19.00;99.90
39919;DHT22;25589;51.552;13.424;2023-09-07T07:03:42;19.10;99.90
39919;DHT22;25589;51.552;13.424;2023-09-07T07:06:08;19.20;99.90
39919;DHT22;25589;51.552;13.424;2023-09-07T07:08:34;19.30;99.90
39919;DHT22;25589;51.552;13.424;2023-09-07T07:11:00;19.40;99.90
39919;DHT22;25589;51.552;13.424;2023-09-07T07:13:25;19.40;99.90
39919;DHT22;25589;51.552;13.424;2023-09-07T07:15:51;19.50;99.90
39919;DHT22;25589;51.552;13.424;2023-09-07T07:18:17;19.60;99.90
39919;DHT22;25589;51.552;13.424;2023-09-07T07:20:44;19.60;99.90
39919;DHT22;25589;51.552;13.424;2023-09-07T07:23:11;19.70;99.90
39919;DHT22;25589;51.552;13.424;2023-09-07T07:25:38;19.80;99.90
39919;DHT22;25589;51.552;13.424;2023-09-07T07:28:05;19.90;99.90
39919;DHT22;25589;51.552;13.424;2023-09-07T07:30:37;20.00;99.90
39919;DHT22;25589;51.552;13.424;2023-09-07T07:33:04;20.00;99.90
39919;DHT22;25589;51.552;13.424;2023-09-07T07:35:32;20.10;99.90
39919;DHT22;25589;51.552;13.424;2023-09-07T07:37:57;20.20;99.90
39919;DHT22;25589;51.552;13.424;2023-09-07T07:40:23;20.30;99.90
39919;DHT22;25589;51.552;13.424;2023-09-07T07:42:51;20.40;99.90
39919;DHT22;25589;51.552;13.424;2023-09-07T07:45:18;20.40;99.90
39919;DHT22;25589;51.552;13.424;2023-09-07T07:47:51;20.50;99.90
39919;DHT22;25589;51.552;13.424;2023-09-07T07:50:17;20.60;99.90
39919;DHT22;25589;51.552;13.424;2023-09-07T07:52:44;20.70;99.90
39919;DHT22;25589;51.552;13.424;2023-09-07T07:55:11;20.80;99.90
39919;DHT22;25589;51.552;13.424;2023-09-07T07:57:38;20.90;99.90
39919;DHT22;25589;51.552;13.424;2023-09-07T08:00:04;21.00;99.90
39919;DHT22;25589;51.552;13.424;2023-09-07T08:02:39;21.10;99.90
39919;DHT22;25589;51.552;13.424;2023-09-07T08:05:05;21.20;99.90
39919;DHT22;25589;51.552;13.424;2023-09-07T08:07:31;21.30;99.90
39919;DHT22;25589;51.552;13.424;2023-09-07T08:09:58;21.40;99.90
39919;DHT22;25589;51.552;13.424;2023-09-07T08:12:23;21.50;99.90
39919;DHT22;25589;51.552;13.424;2023-09-07T08:14:49;21.70;99.90
39919;DHT22;25589;51.552;13.424;2023-09-07T08:17:15;21.80;99.90
39919;DHT22;25589;51.552;13.424;2023-09-07T08:19:40;21.90;99.90
39919;DHT22;25589;51.552;13.424;2023-09-07T08:22:06;22.00;99.90
39919;DHT22;25589;51.552;13.424;2023-09-07T08:24:32;22.20;99.90
39919;DHT22;25589;51.552;13.424;2023-09-07T08:26:58;22.40;99.90
39919;DHT22;25589;51.552;13.424;2023-09-07T08:29:26;22.40;99.90
39919;DHT22;25589;51.552;13.424;2023-09-07T08:31:53;22.50;99.90
39919;DHT22;25589;51.552;13.424;2023-09-07T08:34:19;22.60;99.90
39919;DHT22;25589;51.552;13.424;2023-09-07T08:36:47;22.70;99.90
39919;DHT22;25589;51.552;13.424;2023-09-07T08:39:13;22.80;99.90
39919;DHT22;25589;51.552;13.424;2023-09-07T08:41:39;22.90;99.90
39919;DHT22;25589;51.552;13.424;2023-09-07T08:44:16;23.10;99.90
39919;DHT22;25589;51.552;13.424;2023-09-07T08:46:43;23.20;99.90
39919;DHT22;25589;51.552;13.424;2023-09-07T08:49:10;23.30;99.90
39919;DHT22;25589;51.552;13.424;2023-09-07T08:51:37;23.40;99.90
39919;DHT22;25589;51.552;13.424;2023-09-07T08:54:04;23.50;99.90
39919;DHT22;25589;51.552;13.424;2023-09-07T08:56:30;23.70;99.90
39919;DHT22;25589;51.552;13.424;2023-09-07T08:58:56;23.80;99.90
39919;DHT22;25589;51.552;13.424;2023-09-07T09:01:22;23.90;99.90
39919;DHT22;25589;51.552;13.424;2023-09-07T09:03:49;24.00;99.90
39919;DHT22;25589;51.552;13.424;2023-09-07T09:06:18;24.20;99.90
39919;DHT22;25589;51.552;13.424;2023-09-07T09:08:49;24.30;99.90
39919;DHT22;25589;51.552;13.424;2023-09-07T09:11:16;24.40;99.90
39919;DHT22;25589;51.552;13.424;2023-09-07T09:13:42;24.60;99.90
39919;DHT22;25589;51.552;13.424;2023-09-07T09:16:09;24.70;99.90
39919;DHT22;25589;51.552;13.424;2023-09-07T09:18:35;24.80;99.90
39919;DHT22;25589;51.552;13.424;2023-09-07T09:21:01;24.90;99.90
39919;DHT22;25589;51.552;13.424;2023-09-07T09:26:02;25.20;99.90
39919;DHT22;25589;51.552;13.424;2023-09-07T09:28:30;25.40;99.90
39919;DHT22;25589;51.552;13.424;2023-09-07T09:30:58;25.60;99.90
39919;DHT22;25589;51.552;13.424;2023-09-07T09:33:24;25.80;99.90
39919;DHT22;25589;51.552;13.424;2023-09-07T09:35:51;25.90;99.90
39919;DHT22;25589;51.552;13.424;2023-09-07T09:38:18;26.00;99.90
39919;DHT22;25589;51.552;13.424;2023-09-07T09:40:44;26.10;99.90
39919;DHT22;25589;51.552;13.424;2023-09-07T09:43:10;26.30;99.90
39919;DHT22;25589;51.552;13.424;2023-09-07T09:45:37;26.40;99.90
39919;DHT22;25589;51.552;13.424;2023-09-07T09:48:03;26.60;99.90
39919;DHT22;25589;51.552;13.424;2023-09-07T09:50:30;26.70;99.90
39919;DHT22;25589;51.552;13.424;2023-09-07T09:52:57;26.80;99.50
39919;DHT22;25589;51.552;13.424;2023-09-07T09:55:23;26.90;99.30
39919;DHT22;25589;51.552;13.424;2023-09-07T09:57:50;27.00;98.90
39919;DHT22;25589;51.552;13.424;2023-09-07T10:00:16;27.10;98.30
39919;DHT22;25589;51.552;13.424;2023-09-07T10:02:43;27.30;97.90
39919;DHT22;25589;51.552;13.424;2023-09-07T10:05:10;27.40;97.50
39919;DHT22;25589;51.552;13.424;2023-09-07T10:07:49;27.60;97.00
39919;DHT22;25589;51.552;13.424;2023-09-07T10:10:17;27.80;96.20
39919;DHT22;25589;51.552;13.424;2023-09-07T10:12:44;27.80;96.40
39919;DHT22;25589;51.552;13.424;2023-09-07T10:15:21;27.90;95.60
39919;DHT22;25589;51.552;13.424;2023-09-07T10:17:46;28.00;95.00
39919;DHT22;25589;51.552;13.424;2023-09-07T10:20:16;28.10;94.80
39919;DHT22;25589;51.552;13.424;2023-09-07T10:22:42;28.20;94.60
39919;DHT22;25589;51.552;13.424;2023-09-07T10:25:18;28.40;94.10
39919;DHT22;25589;51.552;13.424;2023-09-07T10:27:44;28.50;93.30
39919;DHT22;25589;51.552;13.424;2023-09-07T10:30:10;28.60;92.70
39919;DHT22;25589;51.552;13.424;2023-09-07T10:32:41;28.60;92.60
39919;DHT22;25589;51.552;13.424;2023-09-07T10:35:18;28.80;92.40
39919;DHT22;25589;51.552;13.424;2023-09-07T10:37:45;28.80;91.70
39919;DHT22;25589;51.552;13.424;2023-09-07T10:40:21;28.90;91.90
39919;DHT22;25589;51.552;13.424;2023-09-07T10:42:47;29.10;90.90
39919;DHT22;25589;51.552;13.424;2023-09-07T10:45:15;29.20;90.40
39919;DHT22;25589;51.552;13.424;2023-09-07T10:47:43;29.30;89.60
39919;DHT22;25589;51.552;13.424;2023-09-07T10:50:12;29.40;87.70
39919;DHT22;25589;51.552;13.424;2023-09-07T10:52:40;29.50;87.60
39919;DHT22;25589;51.552;13.424;2023-09-07T10:55:10;29.60;85.40
39919;DHT22;25589;51.552;13.424;2023-09-07T10:57:45;29.70;83.20
39919;DHT22;25589;51.552;13.424;2023-09-07T11:00:12;29.70;82.10
39919;DHT22;25589;51.552;13.424;2023-09-07T11:02:40;29.80;81.80
39919;DHT22;25589;51.552;13.424;2023-09-07T11:05:07;29.80;81.60
39919;DHT22;25589;51.552;13.424;2023-09-07T11:07:33;30.00;81.30
39919;DHT22;25589;51.552;13.424;2023-09-07T11:09:59;30.10;81.30
39919;DHT22;25589;51.552;13.424;2023-09-07T11:12:25;30.20;79.30
39919;DHT22;25589;51.552;13.424;2023-09-07T11:14:51;30.30;79.00
39919;DHT22;25589;51.552;13.424;2023-09-07T11:17:17;30.40;77.30
39919;DHT22;25589;51.552;13.424;2023-09-07T11:19:43;30.40;75.50
39919;DHT22;25589;51.552;13.424;2023-09-07T11:22:12;30.40;73.20
39919;DHT22;25589;51.552;13.424;2023-09-07T11:24:39;30.60;72.40
39919;DHT22;25589;51.552;13.424;2023-09-07T11:27:05;30.70;69.50
39919;DHT22;25589;51.552;13.424;2023-09-07T11:29:32;30.70;67.70
39919;DHT22;25589;51.552;13.424;2023-09-07T11:32:07;30.80;68.20
39919;DHT22;25589;51.552;13.424;2023-09-07T11:34:34;30.90;65.70
39919;DHT22;25589;51.552;13.424;2023-09-07T11:37:02;31.00;64.70
39919;DHT22;25589;51.552;13.424;2023-09-07T11:39:28;31.20;64.00
39919;DHT22;25589;51.552;13.424;2023-09-07T11:41:54;31.40;62.20
39919;DHT22;25589;51.552;13.424;2023-09-07T11:44:20;31.50;62.10
39919;DHT22;25589;51.552;13.424;2023-09-07T11:46:46;31.60;62.40
39919;DHT22;25589;51.552;13.424;2023-09-07T11:49:11;31.70;62.20
39919;DHT22;25589;51.552;13.424;2023-09-07T11:51:37;31.90;61.80
39919;DHT22;25589;51.552;13.424;2023-09-07T11:54:03;32.10;60.30
39919;DHT22;25589;51.552;13.424;2023-09-07T11:56:30;32.20;59.10
39919;DHT22;25589;51.552;13.424;2023-09-07T11:58:55;32.20;58.90
39919;DHT22;25589;51.552;13.424;2023-09-07T12:01:21;32.30;58.70
39919;DHT22;25589;51.552;13.424;2023-09-07T12:03:47;32.50;58.30
39919;DHT22;25589;51.552;13.424;2023-09-07T12:06:13;32.50;57.10
39919;DHT22;25589;51.552;13.424;2023-09-07T12:08:42;32.50;57.30
39919;DHT22;25589;51.552;13.424;2023-09-07T12:11:11;32.60;57.20
39919;DHT22;25589;51.552;13.424;2023-09-07T12:13:36;32.70;56.90
39919;DHT22;25589;51.552;13.424;2023-09-07T12:16:02;32.90;56.40
39919;DHT22;25589;51.552;13.424;2023-09-07T12:18:28;33.10;56.20
39919;DHT22;25589;51.552;13.424;2023-09-07T12:20:53;33.30;55.50
39919;DHT22;25589;51.552;13.424;2023-09-07T12:23:19;33.50;55.00
39919;DHT22;25589;51.552;13.424;2023-09-07T12:25:45;33.60;54.80
39919;DHT22;25589;51.552;13.424;2023-09-07T12:28:15;33.50;54.20
39919;DHT22;25589;51.552;13.424;2023-09-07T12:30:41;33.40;54.10
39919;DHT22;25589;51.552;13.424;2023-09-07T12:33:09;33.40;54.40
39919;DHT22;25589;51.552;13.424;2023-09-07T12:35:35;33.60;54.00
39919;DHT22;25589;51.552;13.424;2023-09-07T12:38:00;33.60;53.80
39919;DHT22;25589;51.552;13.424;2023-09-07T12:40:26;33.60;53.80
39919;DHT22;25589;51.552;13.424;2023-09-07T12:42:52;33.70;53.70
39919;DHT22;25589;51.552;13.424;2023-09-07T12:45:17;33.60;53.70
39919;DHT22;25589;51.552;13.424;2023-09-07T12:47:43;33.60;53.90
39919;DHT22;25589;51.552;13.424;2023-09-07T12:50:08;33.70;54.40
39919;DHT22;25589;51.552;13.424;2023-09-07T12:52:34;33.80;53.90
39919;DHT22;25589;51.552;13.424;2023-09-07T12:55:04;33.70;53.10
39919;DHT22;25589;51.552;13.424;2023-09-07T12:57:30;33.80;52.60
39919;DHT22;25589;51.552;13.424;2023-09-07T12:59:56;33.70;52.70
39919;DHT22;25589;51.552;13.424;2023-09-07T13:02:21;33.80;52.90
39919;DHT22;25589;51.552;13.424;2023-09-07T13:04:47;33.80;53.00
39919;DHT22;25589;51.552;13.424;2023-09-07T13:07:13;34.00;53.40
39919;DHT22;25589;51.552;13.424;2023-09-07T13:09:38;33.80;53.10
39919;DHT22;25589;51.552;13.424;2023-09-07T13:12:04;33.90;53.30
39919;DHT22;25589;51.552;13.424;2023-09-07T13:14:30;34.00;53.40
39919;DHT22;25589;51.552;13.424;2023-09-07T13:16:56;34.10;53.10
39919;DHT22;25589;51.552;13.424;2023-09-07T13:19:21;34.10;53.20
39919;DHT22;25589;51.552;13.424;2023-09-07T13:21:47;34.20;52.60
39919;DHT22;25589;51.552;13.424;2023-09-07T13:24:12;34.20;52.80
39919;DHT22;25589;51.552;13.424;2023-09-07T13:26:40;34.20;52.80
39919;DHT22;25589;51.552;13.424;2023-09-07T13:29:06;34.40;52.30
39919;DHT22;25589;51.552;13.424;2023-09-07T13:31:31;34.40;51.90
39919;DHT22;25589;51.552;13.424;2023-09-07T13:33:57;34.40;51.90
39919;DHT22;25589;51.552;13.424;2023-09-07T13:36:22;34.60;51.50
39919;DHT22;25589;51.552;13.424;2023-09-07T13:38:48;34.50;51.30
39919;DHT22;25589;51.552;13.424;2023-09-07T13:41:13;34.60;51.60
39919;DHT22;25589;51.552;13.424;2023-09-07T13:43:39;34.50;51.70
39919;DHT22;25589;51.552;13.424;2023-09-07T13:46:05;34.40;51.60
39919;DHT22;25589;51.552;13.424;2023-09-07T13:48:30;34.40;51.60
39919;DHT22;25589;51.552;13.424;2023-09-07T13:50:58;34.40;51.80
39919;DHT22;25589;51.552;13.424;2023-09-07T13:53:23;34.80;51.40
39919;DHT22;25589;51.552;13.424;2023-09-07T13:55:49;35.00;50.10
39919;DHT22;25589;51.552;13.424;2023-09-07T13:58:15;35.00;49.30
39919;DHT22;25589;51.552;13.424;2023-09-07T14:00:41;35.00;49.40
39919;DHT22;25589;51.552;13.424;2023-09-07T14:03:06;34.90;49.90
39919;DHT22;25589;51.552;13.424;2023-09-07T14:05:32;35.10;49.40
39919;DHT22;25589;51.552;13.424;2023-09-07T14:07:57;35.40;49.70
39919;DHT22;25589;51.552;13.424;2023-09-07T14:10:23;35.40;49.60
39919;DHT22;25589;51.552;13.424;2023-09-07T14:12:48;35.20;49.40
39919;DHT22;25589;51.552;13.424;2023-09-07T14:15:14;35.20;49.70
39919;DHT22;25589;51.552;13.424;2023-09-07T14:17:40;35.40;50.30
39919;DHT22;25589;51.552;13.424;2023-09-07T14:20:06;35.50;49.40
39919;DHT22;25589;51.552;13.424;2023-09-07T14:22:31;35.80;49.00
39919;DHT22;25589;51.552;13.424;2023-09-07T14:24:57;36.00;48.50
39919;DHT22;25589;51.552;13.424;2023-09-07T14:27:22;36.10;47.90
39919;DHT22;25589;51.552;13.424;2023-09-07T14:29:48;35.90;47.70
39919;DHT22;25589;51.552;13.424;2023-09-07T14:32:14;36.00;47.60
39919;DHT22;25589;51.552;13.424;2023-09-07T14:34:40;36.00;47.80
39919;DHT22;25589;51.552;13.424;2023-09-07T14:37:05;35.90;48.00
39919;DHT22;25589;51.552;13.424;2023-09-07T14:39:31;36.00;48.20
39919;DHT22;25589;51.552;13.424;2023-09-07T14:41:56;35.90;48.20
39919;DHT22;25589;51.552;13.424;2023-09-07T14:44:23;36.20;48.20
39919;DHT22;25589;51.552;13.424;2023-09-07T14:46:49;36.20;47.50
39919;DHT22;25589;51.552;13.424;2023-09-07T14:49:16;36.20;47.50
39919;DHT22;25589;51.552;13.424;2023-09-07T14:51:43;36.30;47.20
39919;DHT22;25589;51.552;13.424;2023-09-07T14:54:09;36.30;47.10
39919;DHT22;25589;51.552;13.424;2023-09-07T14:56:35;36.30;46.80
39919;DHT22;25589;51.552;13.424;2023-09-07T14:59:01;36.50;46.90
39919;DHT22;25589;51.552;13.424;2023-09-07T15:01:27;36.80;46.50
39919;DHT22;25589;51.552;13.424;2023-09-07T15:03:52;37.10;46.40
39919;DHT22;25589;51.552;13.424;2023-09-07T15:06:18;37.20;45.70
39919;DHT22;25589;51.552;13.424;2023-09-07T15:08:44;37.50;45.60
39919;DHT22;25589;51.552;13.424;2023-09-07T15:11:10;37.90;45.20
39919;DHT22;25589;51.552;13.424;2023-09-07T15:13:37;38.00;44.60
39919;DHT22;25589;51.552;13.424;2023-09-07T15:16:03;38.20;44.30